createdAt,value
2023-02-13T00:00:25.894Z,3.96
2023-02-13T00:03:22.906Z,3.94
2023-02-13T00:06:11.805Z,3.93
2023-02-13T00:08:59.462Z,3.93
2023-02-13T00:11:47.537Z,3.90
2023-02-13T00:14:38.720Z,3.89
2023-02-13T00:17:27.033Z,3.89
2023-02-13T00:20:14.987Z,3.87
2023-02-13T00:23:03.052Z,3.88
2023-02-13T00:25:51.233Z,3.87
2023-02-13T00:28:40.903Z,3.87
2023-02-13T00:31:29.343Z,3.86
2023-02-13T00:34:17.271Z,3.83
2023-02-13T00:37:05.307Z,3.82
2023-02-13T00:39:53.492Z,3.81
2023-02-13T00:42:41.238Z,3.80
2023-02-13T00:45:28.986Z,3.80
2023-02-13T00:48:17.402Z,3.79
2023-02-13T00:51:06.846Z,3.79
2023-02-13T00:53:55.182Z,3.79
2023-02-13T00:56:43.214Z,3.79
2023-02-13T00:59:31.026Z,3.78
2023-02-13T01:02:18.822Z,3.76
2023-02-13T01:05:07.758Z,3.75
2023-02-13T01:07:55.777Z,3.74
2023-02-13T01:10:46.708Z,3.74
2023-02-13T01:13:34.922Z,3.73
2023-02-13T01:16:23.007Z,3.73
2023-02-13T01:19:11.479Z,3.75
2023-02-13T01:22:02.065Z,3.75
2023-02-13T01:24:50.647Z,3.76
2023-02-13T01:27:38.660Z,3.75
2023-02-13T01:30:26.412Z,3.77
2023-02-13T01:33:16.389Z,3.77
2023-02-13T01:36:14.264Z,3.79
2023-02-13T01:39:02.671Z,3.79
2023-02-13T01:41:51.476Z,3.79
2023-02-13T01:44:46.575Z,3.79
2023-02-13T01:47:49.874Z,3.79
2023-02-13T01:50:59.523Z,3.78
2023-02-13T01:54:08.453Z,3.75
2023-02-13T01:57:12.388Z,3.74
2023-02-13T02:00:10.786Z,3.73
2023-02-13T02:03:16.939Z,3.73
2023-02-13T02:06:09.605Z,3.73
2023-02-13T02:09:03.298Z,3.72
2023-02-13T02:12:06.088Z,3.70
2023-02-13T02:14:59.180Z,3.69
2023-02-13T02:17:50.414Z,3.65
2023-02-13T02:21:09.293Z,3.64
2023-02-13T02:24:18.405Z,3.64
2023-02-13T02:27:37.843Z,3.66
2023-02-13T02:31:15.548Z,3.69
2023-02-13T02:34:37.563Z,3.70
2023-02-13T02:38:03.660Z,3.77
2023-02-13T02:41:10.358Z,3.80
2023-02-13T02:44:31.556Z,3.83
2023-02-13T02:47:53.644Z,3.84
2023-02-13T02:51:20.741Z,3.92
2023-02-13T02:54:53.809Z,3.96
2023-02-13T02:58:10.203Z,3.98
2023-02-13T03:01:19.715Z,4.02
2023-02-13T03:04:51.097Z,4.04
2023-02-13T03:07:39.228Z,4.04
2023-02-13T03:10:52.827Z,4.02
2023-02-13T03:13:49.005Z,3.99
2023-02-13T03:16:55.439Z,3.99
2023-02-13T03:20:51.981Z,3.98
2023-02-13T03:23:51.928Z,3.96
2023-02-13T03:26:51.287Z,3.93
2023-02-13T03:30:07.852Z,3.91
2023-02-13T03:33:16.896Z,3.88
2023-02-13T03:36:40.919Z,3.86
2023-02-13T03:40:08.930Z,3.86
2023-02-13T03:43:16.498Z,3.85
2023-02-13T03:46:05.567Z,3.85
2023-02-13T03:49:13.087Z,3.85
2023-02-13T03:52:09.344Z,3.88
2023-02-13T03:55:30.584Z,3.88
2023-02-13T03:58:54.122Z,3.88
2023-02-13T04:01:53.915Z,3.84
2023-02-13T04:04:52.103Z,3.83
2023-02-13T04:07:40.056Z,3.83
2023-02-13T04:10:32.741Z,3.84
2023-02-13T04:13:39.080Z,3.87
2023-02-13T04:16:48.412Z,3.91
2023-02-13T04:19:37.549Z,3.98
2023-02-13T04:22:25.458Z,4.06
2023-02-13T04:25:17.177Z,4.12
2023-02-13T04:28:05.288Z,4.18
2023-02-13T04:30:53.149Z,4.24
2023-02-13T04:33:41.322Z,4.30
2023-02-13T04:36:29.155Z,4.35
2023-02-13T04:39:16.930Z,4.43
2023-02-13T04:42:05.074Z,4.47
2023-02-13T04:44:53.041Z,4.51
2023-02-13T04:47:41.216Z,4.55
2023-02-13T04:50:29.063Z,4.57
2023-02-13T04:53:17.127Z,4.61
2023-02-13T04:56:05.316Z,4.63
2023-02-13T04:58:54.833Z,4.65
2023-02-13T05:01:42.667Z,4.67
2023-02-13T05:04:30.897Z,4.68
2023-02-13T05:07:18.938Z,4.68
2023-02-13T05:10:07.641Z,4.67
2023-02-13T05:12:55.664Z,4.72
2023-02-13T05:15:43.632Z,4.71
2023-02-13T05:18:31.593Z,4.72
2023-02-13T05:21:37.750Z,4.71
2023-02-13T05:24:25.905Z,4.71
2023-02-13T05:27:13.518Z,4.72
2023-02-13T05:30:01.685Z,4.73
2023-02-13T05:32:51.957Z,4.73
2023-02-13T05:35:39.913Z,4.73
2023-02-13T05:38:28.021Z,4.73
2023-02-13T05:41:15.966Z,4.75
2023-02-13T05:44:04.706Z,4.76
2023-02-13T05:46:53.350Z,4.78
2023-02-13T05:49:41.721Z,4.81
2023-02-13T05:52:29.472Z,4.81
2023-02-13T05:55:17.476Z,4.81
2023-02-13T05:58:05.521Z,4.81
2023-02-13T06:01:00.512Z,4.83
2023-02-13T06:03:49.068Z,4.83
2023-02-13T06:06:37.350Z,4.86
2023-02-13T06:09:25.330Z,4.86
2023-02-13T06:12:13.510Z,4.86
2023-02-13T06:15:01.297Z,4.83
2023-02-13T06:17:49.002Z,4.85
2023-02-13T06:20:37.140Z,4.92
2023-02-13T06:23:25.307Z,4.95
2023-02-13T06:26:13.637Z,4.96
2023-02-13T06:29:01.834Z,4.98
2023-02-13T06:31:49.697Z,4.99
2023-02-13T06:34:37.626Z,5.00
2023-02-13T06:37:25.533Z,5.03
2023-02-13T06:40:14.983Z,5.08
2023-02-13T06:43:02.734Z,5.11
2023-02-13T06:45:51.957Z,5.17
2023-02-13T06:48:39.548Z,5.21
2023-02-13T06:51:27.404Z,5.25
2023-02-13T06:54:15.080Z,5.25
2023-02-13T06:57:03.144Z,5.27
2023-02-13T06:59:51.170Z,5.31
2023-02-13T07:02:41.298Z,5.35
2023-02-13T07:05:29.805Z,5.38
2023-02-13T07:08:17.505Z,5.40
2023-02-13T07:11:05.407Z,5.43
2023-02-13T07:13:53.540Z,5.44
2023-02-13T07:16:41.179Z,5.46
2023-02-13T07:19:29.293Z,5.51
2023-02-13T07:22:17.207Z,5.59
2023-02-13T07:25:05.601Z,5.74
2023-02-13T07:27:54.222Z,5.87
2023-02-13T07:30:42.176Z,6.01
2023-02-13T07:33:30.115Z,6.17
2023-02-13T07:36:18.078Z,6.37
2023-02-13T07:39:06.269Z,6.50
2023-02-13T07:41:54.128Z,6.69
2023-02-13T07:44:46.870Z,7.13
2023-02-13T07:47:35.273Z,7.70
2023-02-13T07:50:23.820Z,7.93
2023-02-13T07:53:11.850Z,8.19
2023-02-13T07:55:59.946Z,7.91
2023-02-13T07:58:47.888Z,7.67
2023-02-13T08:01:35.511Z,7.54
2023-02-13T08:04:25.418Z,7.54
2023-02-13T08:07:16.855Z,7.40
2023-02-13T08:10:26.990Z,7.35
2023-02-13T08:13:16.741Z,7.65
2023-02-13T08:16:04.784Z,7.82
2023-02-13T08:18:52.968Z,7.91
2023-02-13T08:21:40.837Z,8.16
2023-02-13T08:24:28.835Z,8.13
2023-02-13T08:27:16.863Z,8.02
2023-02-13T08:30:06.140Z,7.83
2023-02-13T08:32:54.690Z,7.80
2023-02-13T08:35:42.572Z,7.79
2023-02-13T08:38:30.470Z,7.94
2023-02-13T08:41:20.989Z,8.20
2023-02-13T08:44:10.766Z,8.57
2023-02-13T08:46:58.956Z,8.95
2023-02-13T08:49:46.861Z,9.26
2023-02-13T08:52:35.475Z,10.05
2023-02-13T08:55:23.708Z,11.13
2023-02-13T08:58:11.776Z,12.22
2023-02-13T09:00:59.667Z,13.43
2023-02-13T09:03:47.466Z,14.84
2023-02-13T09:06:35.261Z,16.21
2023-02-13T09:09:23.499Z,17.46
2023-02-13T09:12:11.507Z,18.22
2023-02-13T09:14:59.307Z,18.80
2023-02-13T09:17:47.313Z,19.66
2023-02-13T09:20:36.262Z,20.35
2023-02-13T09:23:24.092Z,20.80
2023-02-13T09:26:15.447Z,21.31
2023-02-13T09:29:03.998Z,21.70
2023-02-13T09:31:51.747Z,21.99
2023-02-13T09:34:39.544Z,21.76
2023-02-13T09:37:28.018Z,21.90
2023-02-13T09:40:33.076Z,22.12
2023-02-13T09:43:37.554Z,21.83
2023-02-13T09:46:53.139Z,22.16
2023-02-13T09:49:47.141Z,22.83
2023-02-13T09:52:38.349Z,23.16
2023-02-13T09:55:48.267Z,23.44
2023-02-13T09:58:45.636Z,23.36
2023-02-13T10:01:46.565Z,23.14
2023-02-13T10:05:06.893Z,22.12
2023-02-13T10:08:37.050Z,20.10
2023-02-13T10:12:02.939Z,17.67
2023-02-13T10:16:02.484Z,15.27
2023-02-13T10:19:30.530Z,13.57
2023-02-13T10:22:25.067Z,12.27
2023-02-13T10:25:54.797Z,11.54
2023-02-13T10:29:27.128Z,11.24
2023-02-13T10:35:34.326Z,10.74
2023-02-13T10:38:24.037Z,10.30
2023-02-13T10:42:04.912Z,10.30
2023-02-13T10:45:20.384Z,10.82
2023-02-13T10:48:19.064Z,10.93
2023-02-13T10:51:27.952Z,10.99
2023-02-13T10:54:52.777Z,11.41
2023-02-13T10:58:22.764Z,11.87
2023-02-13T11:01:20.376Z,12.21
2023-02-13T11:04:16.985Z,12.98
2023-02-13T11:07:12.940Z,12.58
2023-02-13T11:10:15.372Z,12.04
2023-02-13T11:13:24.202Z,11.59
2023-02-13T11:16:13.997Z,11.17
2023-02-13T11:19:01.965Z,10.69
2023-02-13T11:21:56.510Z,10.14
2023-02-13T11:24:56.420Z,9.79
2023-02-13T11:27:45.434Z,9.80
2023-02-13T11:30:39.544Z,10.49
2023-02-13T11:33:28.757Z,11.48
2023-02-13T11:36:32.014Z,12.63
2023-02-13T11:39:23.086Z,13.60
2023-02-13T11:42:35.038Z,13.92
2023-02-13T11:45:26.227Z,15.05
2023-02-13T11:48:23.329Z,15.66
2023-02-13T11:51:11.961Z,15.92
2023-02-13T11:54:01.249Z,16.09
2023-02-13T11:57:05.057Z,16.19
2023-02-13T11:59:54.202Z,15.95
2023-02-13T12:02:50.149Z,15.76
2023-02-13T12:05:38.331Z,15.87
2023-02-13T12:08:26.541Z,15.65
2023-02-13T12:11:33.996Z,15.09
2023-02-13T12:14:30.212Z,14.71
2023-02-13T12:17:32.558Z,14.32
2023-02-13T12:20:21.332Z,13.45
2023-02-13T12:23:37.764Z,12.90
2023-02-13T12:26:40.727Z,12.48
2023-02-13T12:29:34.971Z,12.39
2023-02-13T12:32:30.317Z,12.15
2023-02-13T12:35:39.398Z,12.40
2023-02-13T12:38:55.276Z,12.54
2023-02-13T12:42:21.258Z,12.26
2023-02-13T12:45:20.961Z,12.17
2023-02-13T12:48:14.877Z,11.87
2023-02-13T12:51:34.970Z,11.92
2023-02-13T12:55:29.073Z,11.83
2023-02-13T12:58:56.466Z,11.75
2023-02-13T13:02:24.416Z,11.57
2023-02-13T13:05:31.388Z,11.45
2023-02-13T13:08:43.002Z,11.25
2023-02-13T13:11:53.423Z,11.20
2023-02-13T13:15:12.476Z,11.25
2023-02-13T13:18:43.280Z,10.87
2023-02-13T13:21:44.182Z,10.57
2023-02-13T13:25:18.466Z,10.32
2023-02-13T13:28:22.577Z,9.78
2023-02-13T13:31:13.720Z,9.44
2023-02-13T13:34:12.395Z,9.18
2023-02-13T13:37:05.804Z,8.93
2023-02-13T13:40:19.124Z,8.96
2023-02-13T13:43:30.913Z,8.80
2023-02-13T13:46:33.761Z,8.61
2023-02-13T13:50:09.067Z,8.51
2023-02-13T13:53:19.415Z,8.27
2023-02-13T13:56:10.651Z,8.04
2023-02-13T13:58:58.534Z,7.91
2023-02-13T14:01:46.700Z,7.82
2023-02-13T14:04:40.538Z,7.68
2023-02-13T14:07:38.042Z,7.47
2023-02-13T14:10:26.010Z,7.32
2023-02-13T14:13:29.861Z,7.10
2023-02-13T14:16:45.749Z,6.90
2023-02-13T14:19:37.717Z,6.74
2023-02-13T14:22:34.446Z,6.62
2023-02-13T14:25:28.462Z,6.56
2023-02-13T14:28:27.537Z,6.49
2023-02-13T14:31:40.719Z,6.38
2023-02-13T14:34:36.376Z,6.24
2023-02-13T14:37:58.582Z,6.25
2023-02-13T14:40:52.298Z,6.24
2023-02-13T14:43:52.963Z,6.19
2023-02-13T14:46:47.983Z,6.11
2023-02-13T14:49:40.792Z,6.10
2023-02-13T14:52:44.513Z,6.09
2023-02-13T14:55:43.096Z,6.05
2023-02-13T14:58:35.765Z,6.02
2023-02-13T15:01:45.265Z,6.01
2023-02-13T15:04:45.085Z,5.97
2023-02-13T15:07:44.413Z,5.90
2023-02-13T15:10:42.397Z,5.79
2023-02-13T15:13:41.038Z,5.70
2023-02-13T15:16:30.143Z,5.60
2023-02-13T15:19:21.860Z,5.51
2023-02-13T15:22:38.658Z,5.42
2023-02-13T15:25:40.758Z,5.33
2023-02-13T15:28:29.808Z,5.27
2023-02-13T15:31:24.608Z,5.23
2023-02-13T15:34:32.286Z,5.15
2023-02-13T15:37:23.974Z,5.08
2023-02-13T15:40:41.932Z,5.01
2023-02-13T15:43:58.647Z,4.91
2023-02-13T15:46:53.636Z,4.84
2023-02-13T15:49:47.766Z,4.76
2023-02-13T15:52:39.740Z,4.67
2023-02-13T15:55:31.677Z,4.62
2023-02-13T15:58:20.148Z,4.55
2023-02-13T16:01:10.531Z,4.49
2023-02-13T16:04:08.860Z,4.45
2023-02-13T16:06:58.304Z,4.39
2023-02-13T16:09:46.688Z,4.35
2023-02-13T16:12:34.987Z,4.30
2023-02-13T16:15:27.904Z,4.22
2023-02-13T16:18:21.168Z,4.21
2023-02-13T16:21:09.352Z,4.17
2023-02-13T16:24:03.485Z,4.13
2023-02-13T16:26:52.196Z,4.11
2023-02-13T16:29:50.458Z,4.08
2023-02-13T16:32:39.044Z,4.04
2023-02-13T16:35:31.241Z,3.99
2023-02-13T16:38:38.951Z,3.96
2023-02-13T16:41:26.767Z,3.92
2023-02-13T16:44:32.921Z,3.91
2023-02-13T16:47:24.938Z,3.89
2023-02-13T16:50:17.634Z,3.87
2023-02-13T16:53:05.499Z,3.85
2023-02-13T16:56:02.841Z,3.84
2023-02-13T16:58:51.086Z,3.82
2023-02-13T17:01:38.846Z,3.79
2023-02-13T17:04:28.279Z,3.76
2023-02-13T17:07:29.849Z,3.74
2023-02-13T17:10:28.337Z,3.70
2023-02-13T17:13:19.304Z,3.68
2023-02-13T17:16:09.617Z,3.66
2023-02-13T17:18:57.610Z,3.63
2023-02-13T17:21:45.620Z,3.62
2023-02-13T17:24:34.093Z,3.60
2023-02-13T17:27:22.889Z,3.57
2023-02-13T17:30:23.265Z,3.54
2023-02-13T17:33:21.239Z,3.51
2023-02-13T17:36:12.910Z,3.49
2023-02-13T17:39:00.724Z,3.47
2023-02-13T17:41:48.708Z,3.45
2023-02-13T17:44:36.616Z,3.43
2023-02-13T17:47:26.027Z,3.42
2023-02-13T17:50:17.196Z,3.40
2023-02-13T17:53:07.666Z,3.38
2023-02-13T17:55:56.121Z,3.36
2023-02-13T17:58:43.848Z,3.34
2023-02-13T18:01:32.144Z,3.32
2023-02-13T18:04:20.041Z,3.30
2023-02-13T18:07:08.172Z,3.27
2023-02-13T18:09:56.287Z,3.24
2023-02-13T18:12:45.557Z,3.23
2023-02-13T18:15:41.624Z,3.21
2023-02-13T18:18:29.593Z,3.20
2023-02-13T18:21:17.849Z,3.17
2023-02-13T18:24:06.059Z,3.15
2023-02-13T18:26:56.016Z,3.13
2023-02-13T18:29:43.785Z,3.12
2023-02-13T18:32:31.835Z,3.11
2023-02-13T18:35:21.176Z,3.09
2023-02-13T18:38:09.001Z,3.06
2023-02-13T18:40:57.155Z,3.05
2023-02-13T18:43:45.373Z,3.06
2023-02-13T18:46:33.600Z,3.05
2023-02-13T18:49:21.607Z,3.05
2023-02-13T18:52:09.731Z,3.04
2023-02-13T18:54:57.342Z,3.03
2023-02-13T18:57:45.598Z,3.03
2023-02-13T19:00:33.628Z,3.00
2023-02-13T19:03:21.292Z,2.97
2023-02-13T19:06:13.103Z,2.96
2023-02-13T19:09:00.801Z,2.95
2023-02-13T19:11:49.027Z,2.94
2023-02-13T19:14:37.378Z,2.93
2023-02-13T19:17:27.722Z,2.92
2023-02-13T19:20:16.846Z,2.92
2023-02-13T19:23:04.863Z,2.92
2023-02-13T19:25:53.030Z,2.90
2023-02-13T19:28:41.175Z,2.90
2023-02-13T19:31:31.838Z,2.89
2023-02-13T19:34:20.104Z,2.90
2023-02-13T19:37:08.075Z,2.89
2023-02-13T19:39:56.337Z,2.90
2023-02-13T19:42:44.207Z,2.88
2023-02-13T19:45:33.123Z,2.88
2023-02-13T19:48:20.862Z,2.89
2023-02-13T19:51:19.820Z,2.89
2023-02-13T19:54:10.712Z,2.88
2023-02-13T19:57:01.603Z,2.87
2023-02-13T19:59:49.557Z,2.85
2023-02-13T20:02:38.257Z,2.83
2023-02-13T20:05:26.460Z,2.81
2023-02-13T20:08:14.695Z,2.76
2023-02-13T20:11:02.268Z,2.78
2023-02-13T20:13:58.095Z,2.78
2023-02-13T20:16:46.536Z,2.76
2023-02-13T20:19:34.702Z,2.73
2023-02-13T20:22:22.969Z,2.70
2023-02-13T20:25:10.802Z,2.69
2023-02-13T20:28:00.145Z,2.67
2023-02-13T20:30:47.960Z,2.65
2023-02-13T20:33:37.692Z,2.64
2023-02-13T20:36:29.088Z,2.62
2023-02-13T20:39:16.828Z,2.60
2023-02-13T20:42:04.787Z,2.59
2023-02-13T20:44:52.715Z,2.57
2023-02-13T20:47:42.910Z,2.57
2023-02-13T20:50:31.132Z,2.57
2023-02-13T20:53:19.179Z,2.55
2023-02-13T20:56:16.518Z,2.55
2023-02-13T20:59:05.570Z,2.56
2023-02-13T21:01:53.245Z,2.56
2023-02-13T21:04:40.965Z,2.55
2023-02-13T21:07:31.669Z,2.55
2023-02-13T21:10:19.876Z,2.54
2023-02-13T21:13:10.306Z,2.52
2023-02-13T21:16:05.263Z,2.50
2023-02-13T21:18:57.934Z,2.50
2023-02-13T21:21:46.917Z,2.49
2023-02-13T21:24:34.857Z,2.47
2023-02-13T21:27:22.891Z,2.46
2023-02-13T21:30:11.440Z,2.45
2023-02-13T21:32:59.433Z,2.43
2023-02-13T21:35:47.315Z,2.40
2023-02-13T21:38:36.865Z,2.38
2023-02-13T21:41:24.950Z,2.37
2023-02-13T21:44:15.032Z,2.35
2023-02-13T21:47:04.505Z,2.35
2023-02-13T21:49:53.851Z,2.35
2023-02-13T21:52:41.666Z,2.33
2023-02-13T21:55:29.430Z,2.32
2023-02-13T21:58:17.491Z,2.30
2023-02-13T22:01:25.510Z,2.30
2023-02-13T22:04:14.702Z,2.29
2023-02-13T22:07:02.581Z,2.28
2023-02-13T22:09:50.757Z,2.27
2023-02-13T22:12:38.711Z,2.27
2023-02-13T22:15:26.681Z,2.27
2023-02-13T22:18:14.895Z,2.27
2023-02-13T22:21:07.294Z,2.28
2023-02-13T22:23:55.629Z,2.29
2023-02-13T22:26:47.283Z,2.29
2023-02-13T22:29:35.102Z,2.30
2023-02-13T22:32:23.051Z,2.30
2023-02-13T22:35:11.030Z,2.30
2023-02-13T22:37:58.923Z,2.29
2023-02-13T22:40:46.748Z,2.28
2023-02-13T22:43:35.303Z,2.27
2023-02-13T22:46:30.828Z,2.26
2023-02-13T22:49:18.840Z,2.25
2023-02-13T22:52:08.051Z,2.24
2023-02-13T22:54:55.901Z,2.24
2023-02-13T22:57:43.860Z,2.24
2023-02-13T23:00:31.656Z,2.24
2023-02-13T23:03:20.842Z,2.25
2023-02-13T23:06:11.160Z,2.25
2023-02-13T23:08:58.737Z,2.26
2023-02-13T23:12:05.111Z,2.27
2023-02-13T23:14:53.989Z,2.29
2023-02-13T23:18:01.467Z,2.31
2023-02-13T23:20:50.019Z,2.31
2023-02-13T23:23:38.731Z,2.29
2023-02-13T23:26:26.984Z,2.32
2023-02-13T23:29:14.724Z,2.32
2023-02-13T23:32:02.501Z,2.32
2023-02-13T23:34:50.626Z,2.34
2023-02-13T23:37:38.710Z,2.35
2023-02-13T23:40:26.529Z,2.37
2023-02-13T23:43:14.437Z,2.39
2023-02-13T23:46:07.227Z,2.43
2023-02-13T23:48:55.675Z,2.46
2023-02-13T23:51:43.660Z,2.50
2023-02-13T23:54:31.668Z,2.53
2023-02-13T23:57:19.510Z,2.54
